createdAt,value
2018-03-27T00:00:35.202Z,1012.51
2018-03-27T00:01:35.021Z,1012.51
2018-03-27T00:02:34.998Z,1012.53
2018-03-27T00:03:34.884Z,1012.48
2018-03-27T00:04:34.803Z,1012.51
2018-03-27T00:05:34.686Z,1012.48
2018-03-27T00:06:34.719Z,1012.50
2018-03-27T00:07:34.528Z,1012.50
2018-03-27T00:08:34.561Z,1012.51
2018-03-27T00:09:34.362Z,1012.54
2018-03-27T00:10:34.336Z,1012.54
2018-03-27T00:11:34.203Z,1012.53
2018-03-27T00:12:34.248Z,1012.45
2018-03-27T00:13:34.034Z,1012.48
2018-03-27T00:14:34.087Z,1012.49
2018-03-27T00:15:33.879Z,1012.46
2018-03-27T00:16:33.861Z,1012.49
2018-03-27T00:17:33.710Z,1012.53
2018-03-27T00:18:33.700Z,1012.48
2018-03-27T00:19:33.565Z,1012.48
2018-03-27T00:20:33.583Z,1012.49
2018-03-27T00:21:33.418Z,1012.48
2018-03-27T00:22:33.388Z,1012.50
2018-03-27T00:23:33.230Z,1012.50
2018-03-27T00:24:33.217Z,1012.53
2018-03-27T00:25:33.100Z,1012.51
2018-03-27T00:26:33.119Z,1012.51
2018-03-27T00:27:32.910Z,1012.50
2018-03-27T00:28:32.927Z,1012.48
2018-03-27T00:29:32.758Z,1012.48
2018-03-27T00:30:32.728Z,1012.48
2018-03-27T00:31:32.581Z,1012.48
2018-03-27T00:32:32.532Z,1012.50
2018-03-27T00:33:32.412Z,1012.46
2018-03-27T00:34:32.482Z,1012.47
2018-03-27T00:35:32.259Z,1012.51
2018-03-27T00:36:32.246Z,1012.53
2018-03-27T00:37:32.092Z,1012.50
2018-03-27T00:38:32.062Z,1012.48
2018-03-27T00:39:31.944Z,1012.48
2018-03-27T00:40:31.972Z,1012.51
2018-03-27T00:41:31.779Z,1012.45
2018-03-27T00:42:31.775Z,1012.44
2018-03-27T00:43:31.601Z,1012.45
2018-03-27T00:44:31.617Z,1012.46
2018-03-27T00:45:31.488Z,1012.47
2018-03-27T00:46:31.497Z,1012.44
2018-03-27T00:47:31.284Z,1012.46
2018-03-27T00:48:31.304Z,1012.47
2018-03-27T00:49:31.120Z,1012.42
2018-03-27T00:50:31.156Z,1012.43
2018-03-27T00:51:30.952Z,1012.42
2018-03-27T00:52:30.931Z,1012.42
2018-03-27T00:53:30.794Z,1012.43
2018-03-27T00:54:30.834Z,1012.42
2018-03-27T00:55:30.665Z,1012.43
2018-03-27T00:56:30.642Z,1012.37
2018-03-27T00:57:30.494Z,1012.39
2018-03-27T00:58:30.556Z,1012.35
2018-03-27T00:59:30.309Z,1012.38
2018-03-27T01:00:30.293Z,1012.36
2018-03-27T01:01:30.159Z,1012.38
2018-03-27T01:02:30.166Z,1012.37
2018-03-27T01:03:29.983Z,1012.35
2018-03-27T01:04:29.983Z,1012.38
2018-03-27T01:05:29.847Z,1012.39
2018-03-27T01:06:29.790Z,1012.36
2018-03-27T01:07:29.663Z,1012.38
2018-03-27T01:08:29.694Z,1012.36
2018-03-27T01:09:29.498Z,1012.36
2018-03-27T01:10:29.536Z,1012.35
2018-03-27T01:11:29.352Z,1012.34
2018-03-27T01:12:29.313Z,1012.37
2018-03-27T01:13:29.178Z,1012.32
2018-03-27T01:14:29.116Z,1012.34
2018-03-27T01:15:29.008Z,1012.36
2018-03-27T01:16:29.057Z,1012.32
2018-03-27T01:17:28.841Z,1012.35
2018-03-27T01:18:28.851Z,1012.30
2018-03-27T01:19:28.687Z,1012.34
2018-03-27T01:20:28.689Z,1012.31
2018-03-27T01:21:28.682Z,1012.33
2018-03-27T01:22:28.557Z,1012.29
2018-03-27T01:23:28.354Z,1012.33
2018-03-27T01:24:28.382Z,1012.33
2018-03-27T01:25:28.190Z,1012.30
2018-03-27T01:26:28.204Z,1012.33
2018-03-27T01:27:28.029Z,1012.37
2018-03-27T01:28:27.982Z,1012.34
2018-03-27T01:29:27.861Z,1012.29
2018-03-27T01:30:27.894Z,1012.32
2018-03-27T01:31:27.724Z,1012.30
2018-03-27T01:32:27.702Z,1012.24
2018-03-27T01:33:27.539Z,1012.26
2018-03-27T01:34:27.510Z,1012.24
2018-03-27T01:35:27.376Z,1012.26
2018-03-27T01:36:27.350Z,1012.22
2018-03-27T01:37:27.243Z,1012.18
2018-03-27T01:38:27.537Z,1012.21
2018-03-27T01:39:27.057Z,1012.23
2018-03-27T01:42:09.182Z,1012.24
2018-03-27T01:43:09.145Z,1012.18
2018-03-27T01:44:09.007Z,1012.22
2018-03-27T01:45:09.051Z,1012.22
2018-03-27T01:46:08.843Z,1012.24
2018-03-27T01:47:08.895Z,1012.20
2018-03-27T01:48:08.731Z,1012.19
2018-03-27T01:49:08.688Z,1012.18
2018-03-27T01:50:08.525Z,1012.16
2018-03-27T01:51:08.555Z,1012.09
2018-03-27T01:52:08.377Z,1012.12
2018-03-27T01:53:08.391Z,1012.12
2018-03-27T01:54:08.194Z,1012.11
2018-03-27T01:55:08.207Z,1012.12
2018-03-27T01:56:08.024Z,1012.10
2018-03-27T01:57:08.056Z,1012.08
2018-03-27T01:58:07.888Z,1012.07
2018-03-27T01:59:07.956Z,1012.10
2018-03-27T02:00:07.701Z,1012.03
2018-03-27T02:01:07.720Z,1012.07
2018-03-27T02:02:07.548Z,1012.03
2018-03-27T02:03:07.532Z,1012.06
2018-03-27T02:04:07.377Z,1012.02
2018-03-27T02:05:07.348Z,1012.04
2018-03-27T02:06:07.212Z,1012.01
2018-03-27T02:07:07.302Z,1012.02
2018-03-27T02:08:07.068Z,1011.98
2018-03-27T02:09:07.058Z,1011.98
2018-03-27T02:10:06.886Z,1012.00
2018-03-27T02:11:06.867Z,1012.02
2018-03-27T02:12:06.718Z,1011.97
2018-03-27T02:13:06.710Z,1011.94
2018-03-27T02:14:06.566Z,1011.98
2018-03-27T02:15:06.579Z,1011.94
2018-03-27T02:16:06.392Z,1011.95
2018-03-27T02:17:06.393Z,1011.98
2018-03-27T02:18:06.287Z,1011.97
2018-03-27T02:19:06.204Z,1011.99
2018-03-27T02:20:06.074Z,1011.98
2018-03-27T02:21:06.110Z,1011.91
2018-03-27T02:22:05.904Z,1011.93
2018-03-27T02:23:05.957Z,1011.94
2018-03-27T02:24:05.753Z,1011.89
2018-03-27T02:25:05.728Z,1011.88
2018-03-27T02:26:05.585Z,1011.91
2018-03-27T02:27:05.557Z,1011.86
2018-03-27T02:28:05.416Z,1011.87
2018-03-27T02:29:05.483Z,1011.86
2018-03-27T02:30:05.254Z,1011.88
2018-03-27T02:31:05.259Z,1011.92
2018-03-27T02:32:05.088Z,1011.88
2018-03-27T02:33:05.103Z,1011.84
2018-03-27T02:34:04.939Z,1011.87
2018-03-27T02:35:04.985Z,1011.88
2018-03-27T02:36:04.764Z,1011.88
2018-03-27T02:37:04.787Z,1011.86
2018-03-27T02:38:04.623Z,1011.88
2018-03-27T02:39:04.647Z,1011.87
2018-03-27T02:40:04.433Z,1011.86
2018-03-27T02:41:04.403Z,1011.84
2018-03-27T02:42:04.283Z,1011.90
2018-03-27T02:43:04.311Z,1011.91
2018-03-27T02:44:04.121Z,1011.91
2018-03-27T02:45:04.121Z,1011.88
2018-03-27T02:46:03.940Z,1011.87
2018-03-27T02:47:03.928Z,1011.88
2018-03-27T02:48:03.792Z,1011.87
2018-03-27T02:49:03.771Z,1011.85
2018-03-27T02:50:03.617Z,1011.87
2018-03-27T02:51:03.650Z,1011.85
2018-03-27T02:52:03.447Z,1011.90
2018-03-27T02:53:03.465Z,1011.88
2018-03-27T02:54:03.307Z,1011.89
2018-03-27T02:55:03.271Z,1011.87
2018-03-27T02:56:03.134Z,1011.84
2018-03-27T02:57:03.080Z,1011.90
2018-03-27T02:58:02.956Z,1011.88
2018-03-27T02:59:03.030Z,1011.88
2018-03-27T03:00:02.795Z,1011.86
2018-03-27T03:01:02.796Z,1011.85
2018-03-27T03:02:02.627Z,1011.87
2018-03-27T03:03:02.599Z,1011.85
2018-03-27T03:04:02.487Z,1011.82
2018-03-27T03:05:02.413Z,1011.82
2018-03-27T03:06:02.315Z,1011.81
2018-03-27T03:07:02.319Z,1011.87
2018-03-27T03:08:02.140Z,1011.80
2018-03-27T03:09:02.130Z,1011.88
2018-03-27T03:10:02.005Z,1011.80
2018-03-27T03:11:01.977Z,1011.82
2018-03-27T03:12:01.817Z,1011.82
2018-03-27T03:13:01.844Z,1011.84
2018-03-27T03:14:01.658Z,1011.80
2018-03-27T03:15:01.695Z,1011.83
2018-03-27T03:16:01.496Z,1011.80
2018-03-27T03:17:01.468Z,1011.81
2018-03-27T03:18:01.312Z,1011.84
2018-03-27T03:19:01.278Z,1011.77
2018-03-27T03:20:01.167Z,1011.77
2018-03-27T03:21:01.122Z,1011.80
2018-03-27T03:22:00.983Z,1011.78
2018-03-27T03:23:00.994Z,1011.76
2018-03-27T03:24:00.815Z,1011.74
2018-03-27T03:25:00.806Z,1011.70
2018-03-27T03:26:00.671Z,1011.72
2018-03-27T03:27:00.609Z,1011.75
2018-03-27T03:28:00.491Z,1011.76
2018-03-27T03:29:00.523Z,1011.74
2018-03-27T03:30:00.419Z,1011.72
2018-03-27T03:31:00.360Z,1011.73
2018-03-27T03:32:00.175Z,1011.72
2018-03-27T03:33:00.149Z,1011.73
2018-03-27T03:34:00.001Z,1011.74
2018-03-27T03:34:59.951Z,1011.65
2018-03-27T03:35:59.846Z,1011.68
2018-03-27T03:36:59.886Z,1011.72
2018-03-27T03:37:59.662Z,1011.71
2018-03-27T03:38:59.664Z,1011.69
2018-03-27T03:39:59.497Z,1011.71
2018-03-27T03:40:59.488Z,1011.69
2018-03-27T03:41:59.352Z,1011.76
2018-03-27T03:42:59.385Z,1011.71
2018-03-27T03:43:59.169Z,1011.70
2018-03-27T03:44:59.187Z,1011.71
2018-03-27T03:45:59.028Z,1011.71
2018-03-27T03:46:59.027Z,1011.74
2018-03-27T03:47:58.843Z,1011.75
2018-03-27T03:48:58.806Z,1011.75
2018-03-27T03:49:58.778Z,1011.73
2018-03-27T03:50:58.723Z,1011.73
2018-03-27T03:51:58.545Z,1011.78
2018-03-27T03:52:58.643Z,1011.70
2018-03-27T03:53:58.344Z,1011.69
2018-03-27T03:54:58.343Z,1011.70
2018-03-27T03:55:58.176Z,1011.68
2018-03-27T03:56:58.143Z,1011.68
2018-03-27T03:57:58.037Z,1011.67
2018-03-27T03:58:58.054Z,1011.65
2018-03-27T03:59:57.856Z,1011.70
2018-03-27T04:00:57.864Z,1011.69
2018-03-27T04:01:57.695Z,1011.65
2018-03-27T04:02:57.711Z,1011.69
2018-03-27T04:03:57.517Z,1011.71
2018-03-27T04:04:57.483Z,1011.71
2018-03-27T04:05:57.345Z,1011.69
2018-03-27T04:06:57.390Z,1011.71
2018-03-27T04:07:57.201Z,1011.69
2018-03-27T04:08:57.202Z,1011.66
2018-03-27T04:09:57.128Z,1011.64
2018-03-27T04:10:57.002Z,1011.60
2018-03-27T04:11:56.850Z,1011.58
2018-03-27T04:12:56.854Z,1011.58
2018-03-27T04:13:56.694Z,1011.60
2018-03-27T04:14:56.723Z,1011.60
2018-03-27T04:15:56.528Z,1011.57
2018-03-27T04:16:56.534Z,1011.60
2018-03-27T04:17:56.357Z,1011.57
2018-03-27T04:18:56.374Z,1011.57
2018-03-27T04:19:56.300Z,1011.51
2018-03-27T04:20:56.152Z,1011.56
2018-03-27T04:21:56.043Z,1011.53
2018-03-27T04:22:56.112Z,1011.55
2018-03-27T04:23:55.865Z,1011.58
2018-03-27T04:24:55.874Z,1011.53
2018-03-27T04:25:55.700Z,1011.53
2018-03-27T04:26:55.676Z,1011.47
2018-03-27T04:27:55.557Z,1011.49
2018-03-27T04:28:55.483Z,1011.46
2018-03-27T04:29:55.365Z,1011.48
2018-03-27T04:30:55.393Z,1011.44
2018-03-27T04:31:55.195Z,1011.41
2018-03-27T04:32:55.234Z,1011.43
2018-03-27T04:33:55.037Z,1011.39
2018-03-27T04:34:55.027Z,1011.45
2018-03-27T04:35:54.865Z,1011.41
2018-03-27T04:36:54.819Z,1011.39
2018-03-27T04:37:54.728Z,1011.40
2018-03-27T04:38:54.736Z,1011.35
2018-03-27T04:39:54.590Z,1011.31
2018-03-27T04:40:54.547Z,1011.29
2018-03-27T04:41:54.371Z,1011.29
2018-03-27T04:42:54.443Z,1011.31
2018-03-27T04:43:54.215Z,1011.33
2018-03-27T04:44:54.161Z,1011.29
2018-03-27T04:45:54.033Z,1011.32
2018-03-27T04:46:56.348Z,1011.28
2018-03-27T04:48:18.271Z,1011.29
2018-03-27T04:49:15.851Z,1011.28
2018-03-27T04:49:53.787Z,1011.27
2018-03-27T04:50:53.620Z,1011.28
2018-03-27T04:51:53.591Z,1011.26
2018-03-27T04:52:53.454Z,1011.26
2018-03-27T04:53:53.429Z,1011.25
2018-03-27T04:54:53.288Z,1011.18
2018-03-27T04:55:53.332Z,1011.20
2018-03-27T04:56:53.127Z,1011.22
2018-03-27T04:57:53.123Z,1011.21
2018-03-27T04:58:53.016Z,1011.21
2018-03-27T04:59:53.005Z,1011.22
2018-03-27T05:00:52.798Z,1011.28
2018-03-27T05:01:52.839Z,1011.21
2018-03-27T05:02:52.725Z,1011.22
2018-03-27T05:03:52.723Z,1011.24
2018-03-27T05:04:52.589Z,1011.23
2018-03-27T05:05:52.514Z,1011.22
2018-03-27T05:06:52.304Z,1011.22
2018-03-27T05:07:52.343Z,1011.23
2018-03-27T05:08:52.128Z,1011.23
2018-03-27T05:09:52.109Z,1011.26
2018-03-27T05:10:51.953Z,1011.24
2018-03-27T05:11:51.992Z,1011.21
2018-03-27T05:12:51.845Z,1011.18
2018-03-27T05:13:51.792Z,1011.17
2018-03-27T05:14:51.640Z,1011.15
2018-03-27T05:15:51.609Z,1011.15
2018-03-27T05:16:51.464Z,1011.15
2018-03-27T05:17:51.509Z,1011.13
2018-03-27T05:18:51.301Z,1011.11
2018-03-27T05:19:51.330Z,1011.15
2018-03-27T05:20:51.150Z,1011.09
2018-03-27T05:21:51.133Z,1011.12
2018-03-27T05:22:50.961Z,1011.10
2018-03-27T05:23:50.937Z,1011.16
2018-03-27T05:24:50.797Z,1011.12
2018-03-27T05:25:50.774Z,1011.12
2018-03-27T05:26:50.646Z,1011.12
2018-03-27T05:27:50.858Z,1011.10
2018-03-27T05:28:50.525Z,1011.08
2018-03-27T05:29:50.999Z,1011.05
2018-03-27T05:30:50.339Z,1011.07
2018-03-27T05:33:32.221Z,1011.08
2018-03-27T05:34:32.170Z,1011.06
2018-03-27T05:35:32.029Z,1011.03
2018-03-27T05:36:32.100Z,1011.06
2018-03-27T05:37:31.866Z,1011.06
2018-03-27T05:38:31.889Z,1011.06
2018-03-27T05:39:31.705Z,1011.05
2018-03-27T05:40:31.713Z,1011.04
2018-03-27T05:41:31.555Z,1011.05
2018-03-27T05:42:31.510Z,1011.09
2018-03-27T05:43:31.366Z,1011.05
2018-03-27T05:44:31.320Z,1011.07
2018-03-27T05:45:31.202Z,1011.05
2018-03-27T05:46:31.251Z,1011.02
2018-03-27T05:47:31.033Z,1010.98
2018-03-27T05:48:31.034Z,1010.97
2018-03-27T05:49:30.875Z,1010.97
2018-03-27T05:50:30.845Z,1010.99
2018-03-27T05:51:30.717Z,1010.98
2018-03-27T05:52:30.652Z,1010.93
2018-03-27T05:53:30.570Z,1010.97
2018-03-27T05:54:30.561Z,1010.91
2018-03-27T05:55:30.367Z,1010.94
2018-03-27T05:57:55.282Z,1010.94
2018-03-27T05:58:55.120Z,1010.92
2018-03-27T05:59:55.064Z,1010.94
2018-03-27T06:00:54.947Z,1010.94
2018-03-27T06:01:55.016Z,1010.99
2018-03-27T06:02:54.790Z,1010.98
2018-03-27T06:03:54.783Z,1010.94
2018-03-27T06:04:55.290Z,1010.93
2018-03-27T06:05:54.812Z,1010.91
2018-03-27T06:06:54.494Z,1010.94
2018-03-27T06:07:55.062Z,1010.94
2018-03-27T06:08:54.302Z,1010.92
2018-03-27T06:09:54.316Z,1010.93
2018-03-27T06:10:54.114Z,1010.96
2018-03-27T06:11:54.121Z,1010.93
2018-03-27T06:12:53.976Z,1010.92
2018-03-27T06:13:53.950Z,1010.93
2018-03-27T06:14:53.780Z,1010.93
2018-03-27T06:15:53.735Z,1010.97
2018-03-27T06:16:53.638Z,1010.91
2018-03-27T06:17:53.688Z,1010.98
2018-03-27T06:18:53.450Z,1010.97
2018-03-27T06:19:53.455Z,1010.97
2018-03-27T06:20:53.302Z,1010.98
2018-03-27T06:21:53.268Z,1010.94
2018-03-27T06:22:53.135Z,1010.99
2018-03-27T06:23:53.112Z,1010.91
2018-03-27T06:24:52.971Z,1010.90
2018-03-27T06:25:52.983Z,1010.85
2018-03-27T06:26:52.796Z,1010.86
2018-03-27T06:27:52.855Z,1010.86
2018-03-27T06:28:52.619Z,1010.87
2018-03-27T06:29:52.607Z,1010.89
2018-03-27T06:30:52.459Z,1010.85
2018-03-27T06:31:52.409Z,1010.84
2018-03-27T06:32:52.307Z,1010.87
2018-03-27T06:33:52.338Z,1010.87
2018-03-27T06:34:52.122Z,1010.81
2018-03-27T06:35:52.127Z,1010.81
2018-03-27T06:36:51.959Z,1010.82
2018-03-27T06:37:51.951Z,1010.80
2018-03-27T06:38:51.836Z,1010.82
2018-03-27T06:39:51.744Z,1010.80
2018-03-27T06:40:51.641Z,1010.80
2018-03-27T06:41:51.654Z,1010.81
2018-03-27T06:42:51.456Z,1010.84
2018-03-27T06:43:51.474Z,1010.84
2018-03-27T06:44:51.311Z,1010.79
2018-03-27T06:45:51.271Z,1010.80
2018-03-27T06:46:51.123Z,1010.82
2018-03-27T06:47:51.094Z,1010.78
2018-03-27T06:48:50.982Z,1010.89
2018-03-27T06:49:50.987Z,1010.91
2018-03-27T06:50:50.793Z,1010.88
2018-03-27T06:51:50.795Z,1010.85
2018-03-27T06:52:50.658Z,1010.94
2018-03-27T06:53:50.643Z,1010.95
2018-03-27T06:54:50.585Z,1010.92
2018-03-27T06:55:50.415Z,1010.95
2018-03-27T06:56:50.307Z,1010.94
2018-03-27T06:57:50.364Z,1010.97
2018-03-27T06:58:50.133Z,1010.92
2018-03-27T06:59:50.182Z,1010.98
2018-03-27T07:00:49.967Z,1010.93
2018-03-27T07:01:49.961Z,1011.00
2018-03-27T07:02:49.863Z,1010.95
2018-03-27T07:03:49.882Z,1010.96
2018-03-27T07:04:49.668Z,1011.00
2018-03-27T07:05:49.694Z,1011.00
2018-03-27T07:06:49.498Z,1010.99
2018-03-27T07:07:49.501Z,1011.00
2018-03-27T07:08:49.358Z,1010.97
2018-03-27T07:09:49.355Z,1010.92
2018-03-27T07:10:49.165Z,1011.01
2018-03-27T07:11:49.211Z,1010.91
2018-03-27T07:12:48.994Z,1011.00
2018-03-27T07:13:49.014Z,1010.90
2018-03-27T07:14:48.893Z,1010.95
2018-03-27T07:15:48.870Z,1010.93
2018-03-27T07:16:48.681Z,1010.97
2018-03-27T07:17:48.723Z,1010.91
2018-03-27T07:18:48.548Z,1010.92
2018-03-27T07:19:48.574Z,1010.91
2018-03-27T07:20:48.376Z,1010.92
2018-03-27T07:21:48.352Z,1010.95
2018-03-27T07:22:48.210Z,1010.91
2018-03-27T07:23:48.143Z,1010.89
2018-03-27T07:24:48.043Z,1010.92
2018-03-27T07:25:48.116Z,1010.88
2018-03-27T07:26:47.866Z,1010.92
2018-03-27T07:27:47.875Z,1010.88
2018-03-27T07:28:47.720Z,1010.88
2018-03-27T07:29:47.690Z,1010.80
2018-03-27T07:30:47.564Z,1010.81
2018-03-27T07:31:47.595Z,1010.77
2018-03-27T07:32:47.383Z,1010.73
2018-03-27T07:33:47.392Z,1010.75
2018-03-27T07:34:47.229Z,1010.76
2018-03-27T07:35:47.229Z,1010.80
2018-03-27T07:36:47.067Z,1010.77
2018-03-27T07:37:47.012Z,1010.82
2018-03-27T07:38:46.900Z,1010.77
2018-03-27T07:39:46.929Z,1010.79
2018-03-27T07:40:46.789Z,1010.78
2018-03-27T07:41:46.735Z,1010.75
2018-03-27T07:42:46.608Z,1010.73
2018-03-27T07:43:46.530Z,1010.73
2018-03-27T07:44:46.437Z,1010.69
2018-03-27T07:45:46.459Z,1010.65
2018-03-27T07:46:46.273Z,1010.70
2018-03-27T07:47:46.294Z,1010.73
2018-03-27T07:48:46.106Z,1010.72
2018-03-27T07:49:46.063Z,1010.76
2018-03-27T07:50:45.947Z,1010.74
2018-03-27T07:51:46.009Z,1010.70
2018-03-27T07:52:45.798Z,1010.78
2018-03-27T07:53:45.788Z,1010.74
2018-03-27T07:54:45.625Z,1010.72
2018-03-27T07:55:45.590Z,1010.69
2018-03-27T07:56:45.485Z,1010.67
2018-03-27T07:57:45.508Z,1010.66
2018-03-27T07:58:45.313Z,1010.68
2018-03-27T07:59:45.312Z,1010.55
2018-03-27T08:00:45.175Z,1010.69
2018-03-27T08:01:45.149Z,1010.63
2018-03-27T08:02:45.014Z,1010.63
2018-03-27T08:03:45.038Z,1010.59
2018-03-27T08:04:44.830Z,1010.63
2018-03-27T08:05:44.844Z,1010.60
2018-03-27T08:06:44.680Z,1010.56
2018-03-27T08:07:44.677Z,1010.52
2018-03-27T08:08:44.527Z,1010.60
2018-03-27T08:09:44.575Z,1010.59
2018-03-27T08:10:44.374Z,1010.52
2018-03-27T08:11:44.382Z,1010.52
2018-03-27T08:12:44.229Z,1010.44
2018-03-27T08:13:44.176Z,1010.35
2018-03-27T08:14:44.046Z,1010.27
2018-03-27T08:15:44.093Z,1010.25
2018-03-27T08:16:43.896Z,1010.21
2018-03-27T08:17:43.928Z,1010.21
2018-03-27T08:18:43.735Z,1010.21
2018-03-27T08:19:43.697Z,1010.09
2018-03-27T08:20:43.707Z,1010.08
2018-03-27T08:21:43.606Z,1010.09
2018-03-27T08:22:43.446Z,1010.03
2018-03-27T08:23:43.506Z,1009.98
2018-03-27T08:24:43.269Z,1009.95
2018-03-27T08:25:43.230Z,1009.97
2018-03-27T08:26:43.097Z,1009.92
2018-03-27T08:27:43.185Z,1009.88
2018-03-27T08:28:42.993Z,1009.93
2018-03-27T08:29:43.036Z,1009.94
2018-03-27T08:30:42.799Z,1009.92
2018-03-27T08:31:42.760Z,1009.86
2018-03-27T08:32:42.619Z,1009.88
2018-03-27T08:33:42.712Z,1009.90
2018-03-27T08:34:42.467Z,1009.90
2018-03-27T08:35:42.488Z,1009.88
2018-03-27T08:36:42.303Z,1009.83
2018-03-27T08:37:42.278Z,1009.75
2018-03-27T08:38:42.204Z,1009.76
2018-03-27T08:39:42.197Z,1009.77
2018-03-27T08:40:42.054Z,1009.91
2018-03-27T08:41:42.001Z,1009.86
2018-03-27T08:42:41.828Z,1009.89
2018-03-27T08:43:41.856Z,1009.89
2018-03-27T08:44:41.679Z,1009.88
2018-03-27T08:45:41.651Z,1010.00
2018-03-27T08:46:41.520Z,1009.90
2018-03-27T08:47:41.524Z,1009.80
2018-03-27T08:48:41.374Z,1009.65
2018-03-27T08:49:41.343Z,1009.86
2018-03-27T08:50:41.229Z,1009.76
2018-03-27T08:51:41.156Z,1009.70
2018-03-27T08:52:41.053Z,1009.78
2018-03-27T08:53:41.083Z,1009.71
2018-03-27T08:54:40.880Z,1009.68
2018-03-27T08:55:40.875Z,1009.64
2018-03-27T08:56:40.762Z,1009.80
2018-03-27T08:57:40.675Z,1009.68
2018-03-27T08:58:40.563Z,1009.75
2018-03-27T08:59:40.697Z,1009.70
2018-03-27T09:00:40.432Z,1009.78
2018-03-27T09:01:40.442Z,1009.79
2018-03-27T09:02:40.236Z,1009.65
2018-03-27T09:03:40.232Z,1009.69
2018-03-27T09:04:40.114Z,1009.70
2018-03-27T09:05:40.113Z,1009.82
2018-03-27T09:06:39.958Z,1009.72
2018-03-27T09:09:21.734Z,1009.74
2018-03-27T09:10:21.714Z,1009.80
2018-03-27T09:11:21.590Z,1009.90
2018-03-27T09:12:21.658Z,1009.82
2018-03-27T09:13:21.440Z,1009.93
2018-03-27T09:14:21.428Z,1009.76
2018-03-27T09:15:21.286Z,1009.59
2018-03-27T09:16:21.238Z,1009.55
2018-03-27T09:17:21.122Z,1009.55
2018-03-27T09:18:21.152Z,1009.55
2018-03-27T09:19:20.955Z,1009.53
2018-03-27T09:20:21.051Z,1009.46
2018-03-27T09:21:20.803Z,1009.46
2018-03-27T09:22:20.760Z,1009.38
2018-03-27T09:23:20.659Z,1009.41
2018-03-27T09:24:20.674Z,1009.43
2018-03-27T09:25:20.510Z,1009.48
2018-03-27T09:26:20.490Z,1009.33
2018-03-27T09:27:20.344Z,1009.47
2018-03-27T09:28:20.305Z,1009.47
2018-03-27T09:29:20.173Z,1009.52
2018-03-27T09:30:20.239Z,1009.46
2018-03-27T09:31:20.021Z,1009.47
2018-03-27T09:32:20.019Z,1009.41
2018-03-27T09:33:19.926Z,1009.41
2018-03-27T09:34:19.823Z,1009.37
2018-03-27T09:35:19.726Z,1009.19
2018-03-27T09:36:19.736Z,1009.26
2018-03-27T09:37:19.550Z,1009.21
2018-03-27T09:38:19.584Z,1009.27
2018-03-27T09:39:19.384Z,1009.25
2018-03-27T09:40:19.412Z,1009.19
2018-03-27T09:41:19.289Z,1009.21
2018-03-27T09:42:19.272Z,1009.22
2018-03-27T09:43:19.073Z,1009.09
2018-03-27T09:44:19.210Z,1009.16
2018-03-27T09:45:18.936Z,1009.18
2018-03-27T09:46:20.050Z,1009.15
2018-03-27T09:47:18.808Z,1009.11
2018-03-27T09:48:19.776Z,1009.13
2018-03-27T09:49:18.600Z,1009.05
2018-03-27T09:50:18.598Z,1009.11
2018-03-27T09:51:18.459Z,1008.98
2018-03-27T09:52:18.460Z,1009.14
2018-03-27T09:53:18.365Z,1009.04
2018-03-27T09:54:18.345Z,1009.05
2018-03-27T09:55:18.154Z,1008.98
2018-03-27T09:56:18.170Z,1008.92
2018-03-27T09:57:17.998Z,1008.92
2018-03-27T09:58:17.972Z,1008.93
2018-03-27T09:59:17.928Z,1008.87
2018-03-27T10:00:17.855Z,1008.88
2018-03-27T10:01:17.652Z,1008.82
2018-03-27T10:02:17.695Z,1008.77
2018-03-27T10:03:17.492Z,1008.87
2018-03-27T10:04:17.473Z,1008.81
2018-03-27T10:05:17.326Z,1008.76
2018-03-27T10:06:17.377Z,1008.81
2018-03-27T10:07:17.184Z,1008.81
2018-03-27T10:08:17.187Z,1008.82
2018-03-27T10:09:17.024Z,1008.90
2018-03-27T10:10:16.995Z,1008.77
2018-03-27T10:11:16.841Z,1008.81
2018-03-27T10:12:16.830Z,1008.78
2018-03-27T10:13:16.686Z,1008.78
2018-03-27T10:14:16.732Z,1008.78
2018-03-27T10:15:16.521Z,1008.69
2018-03-27T10:16:16.572Z,1008.70
2018-03-27T10:17:16.394Z,1008.64
2018-03-27T10:18:16.367Z,1008.80
2018-03-27T10:19:16.233Z,1008.65
2018-03-27T10:20:16.245Z,1008.74
2018-03-27T10:21:16.047Z,1008.69
2018-03-27T10:22:16.052Z,1008.65
2018-03-27T10:23:15.897Z,1008.61
2018-03-27T10:24:15.869Z,1008.59
2018-03-27T10:25:15.723Z,1008.61
2018-03-27T10:26:15.768Z,1008.68
2018-03-27T10:27:15.589Z,1008.55
2018-03-27T10:28:15.612Z,1008.54
2018-03-27T10:29:15.524Z,1008.64
2018-03-27T10:30:15.388Z,1008.74
2018-03-27T10:31:15.240Z,1008.62
2018-03-27T10:32:15.337Z,1008.77
2018-03-27T10:33:15.080Z,1008.63
2018-03-27T10:34:15.125Z,1008.93
2018-03-27T10:35:14.925Z,1008.80
2018-03-27T10:36:14.901Z,1008.85
2018-03-27T10:37:14.771Z,1008.96
2018-03-27T10:38:14.816Z,1008.90
2018-03-27T10:39:14.632Z,1008.90
2018-03-27T10:40:14.629Z,1009.00
2018-03-27T10:41:14.459Z,1009.24
2018-03-27T10:42:14.439Z,1009.28
2018-03-27T10:43:14.289Z,1009.25
2018-03-27T10:44:14.289Z,1009.26
2018-03-27T10:45:14.135Z,1009.02
2018-03-27T10:46:14.152Z,1009.08
2018-03-27T10:47:13.980Z,1008.69
2018-03-27T10:48:13.979Z,1008.56
2018-03-27T10:49:13.953Z,1008.80
2018-03-27T10:50:13.791Z,1008.72
2018-03-27T10:51:13.657Z,1008.29
2018-03-27T10:52:13.700Z,1008.11
2018-03-27T10:53:13.506Z,1008.20
2018-03-27T10:54:13.538Z,1008.48
2018-03-27T10:55:13.355Z,1008.98
2018-03-27T10:56:13.397Z,1009.27
2018-03-27T10:57:13.214Z,1009.04
2018-03-27T10:59:55.287Z,1008.35
2018-03-27T11:00:55.315Z,1008.42
2018-03-27T11:01:55.117Z,1008.67
2018-03-27T11:02:55.156Z,1008.20
2018-03-27T11:03:54.983Z,1009.09
2018-03-27T11:04:54.972Z,1008.88
2018-03-27T11:05:54.792Z,1009.21
2018-03-27T11:06:54.831Z,1009.40
2018-03-27T11:07:54.642Z,1009.07
2018-03-27T11:08:54.655Z,1008.97
2018-03-27T11:09:54.523Z,1008.81
2018-03-27T11:10:54.457Z,1008.18
2018-03-27T11:11:54.336Z,1008.05
2018-03-27T11:12:54.376Z,1007.98
2018-03-27T11:13:54.191Z,1008.12
2018-03-27T11:14:54.201Z,1008.53
2018-03-27T11:15:54.035Z,1007.70
2018-03-27T11:16:54.018Z,1007.65
2018-03-27T11:17:53.862Z,1007.59
2018-03-27T11:18:53.897Z,1007.35
2018-03-27T11:19:53.732Z,1007.49
2018-03-27T11:20:53.728Z,1007.43
2018-03-27T11:21:53.670Z,1007.38
2018-03-27T11:22:53.499Z,1007.51
2018-03-27T11:23:53.395Z,1007.52
2018-03-27T11:24:53.424Z,1007.42
2018-03-27T11:25:53.241Z,1007.51
2018-03-27T11:26:53.254Z,1007.40
2018-03-27T11:27:53.077Z,1007.40
2018-03-27T11:28:53.045Z,1007.37
2018-03-27T11:29:52.921Z,1007.36
2018-03-27T11:30:52.978Z,1007.42
2018-03-27T11:31:52.800Z,1007.25
2018-03-27T11:32:52.767Z,1007.28
2018-03-27T11:33:52.597Z,1007.27
2018-03-27T11:34:52.593Z,1007.30
2018-03-27T11:35:52.461Z,1007.34
2018-03-27T11:36:52.517Z,1007.84
2018-03-27T11:37:52.303Z,1007.33
2018-03-27T11:38:52.278Z,1008.47
2018-03-27T11:39:52.144Z,1007.57
2018-03-27T11:40:52.091Z,1008.87
2018-03-27T11:41:51.988Z,1007.39
2018-03-27T11:42:52.039Z,1007.77
2018-03-27T11:43:51.827Z,1010.80
2018-03-27T11:44:51.811Z,1013.26
2018-03-27T11:45:51.652Z,1013.27
2018-03-27T11:46:51.625Z,1013.36
2018-03-27T11:47:51.518Z,1014.38
2018-03-27T11:48:51.537Z,1015.02
2018-03-27T11:49:51.337Z,1014.46
2018-03-27T11:50:51.338Z,1014.73
2018-03-27T11:51:51.252Z,1015.18
2018-03-27T11:52:51.142Z,1010.63
2018-03-27T11:53:51.022Z,1010.58
2018-03-27T11:54:51.067Z,1011.48
2018-03-27T11:55:50.974Z,1013.22
2018-03-27T11:56:50.860Z,1011.94
2018-03-27T11:57:50.809Z,1010.17
2018-03-27T11:58:50.668Z,1009.90
2018-03-27T11:59:50.560Z,1010.43
2018-03-27T12:00:50.613Z,1011.27
2018-03-27T12:01:50.422Z,1008.72
2018-03-27T12:02:50.417Z,1007.04
2018-03-27T12:03:50.248Z,1006.99
2018-03-27T12:04:50.315Z,1006.95
2018-03-27T12:05:50.095Z,1006.92
2018-03-27T12:06:50.143Z,1006.80
2018-03-27T12:07:49.958Z,1006.68
2018-03-27T12:08:49.934Z,1006.73
2018-03-27T12:09:49.789Z,1006.66
2018-03-27T12:10:49.835Z,1006.57
2018-03-27T12:11:49.626Z,1006.61
2018-03-27T12:12:49.668Z,1006.53